Time;durP1;ratioP1;P1;durP2;ratioP2;P2;SDS_P1;SDS_P2;PMS_P1;PMS_P2;Temp;Humidity;BMP_temperature;BMP_pressure;BME280_temperature;BME280_humidity;BME280_pressure;Samples;Min_cycle;Max_cycle;Signal;HPM_P1;HPM_P2
2021/08/23 00:00:10;;;;;;;;;;;;;;;22.24;54.40;96082.72;1049160;28;1267;-68
2021/08/23 00:00:41;;;;;;;;;;;;;;;22.23;54.27;96083.81;1048952;28;974;-70
2021/08/23 00:01:11;;;;;;;;;;;;;;;22.23;54.32;96078.53;1048109;28;1572;-69
2021/08/23 00:01:42;;;;;;;;;;;;;;;22.22;54.44;96076.94;1052235;28;1494;-70
2021/08/23 00:02:12;;;;;;;;;;;;;;;22.22;54.40;96078.78;1048527;28;1161;-68
2021/08/23 00:02:43;;;;;;;;;;;;;;;22.21;54.49;96085.13;1048474;28;1419;-71
2021/08/23 00:03:13;;;;;;;;;;;;;;;22.21;54.43;96080.66;1044609;28;1190;-70
2021/08/23 00:03:43;;;;;;;;;;;;;;;22.20;54.43;96070.34;1048621;28;2744;-70
2021/08/23 00:04:14;;;;;;;;;;;;;;;22.19;54.45;96080.13;1045850;28;2290;-68
2021/08/23 00:04:44;;;;;;;;;;;;;;;22.20;54.44;96078.25;1044821;28;2147;-69
2021/08/23 00:05:15;;;;;;;;;;;;;;;22.21;54.42;96082.50;1048882;28;1580;-70
2021/08/23 00:05:45;;;;;;;;;;;;;;;22.20;54.28;96078.25;1049017;28;1365;-69
2021/08/23 00:06:15;;;;;;;;;;;;;;;22.20;54.37;96084.34;1049125;28;1213;-70
2021/08/23 00:06:45;;;;;;;;;;;;;;;22.19;54.39;96077.50;1049252;28;1130;-69
2021/08/23 00:07:16;;;;;;;;;;;;;;;22.19;54.20;96077.50;1048962;28;982;-70
2021/08/23 00:07:46;;;;;;;;;;;;;;;22.19;54.20;96076.69;1049110;28;1173;-69
2021/08/23 00:08:19;;;;;;;;;;;;;;;22.18;54.23;96072.47;1049221;28;1244;-69
2021/08/23 00:08:50;;;;;;;;;;;;;;;22.17;54.52;96074.34;1049162;28;1137;-69
2021/08/23 00:09:21;;;;;;;;;;;;;;;22.18;54.18;96081.19;1047440;28;2361;-68
2021/08/23 00:09:51;;;;;;;;;;;;;;;22.17;54.30;96074.34;1049247;28;1110;-69
2021/08/23 00:10:22;;;;;;;;;;;;;;;22.17;54.39;96074.34;1047793;28;1766;-69
2021/08/23 00:10:52;;;;;;;;;;;;;;;22.17;54.47;96073.53;1045858;28;1237;-70
2021/08/23 00:11:23;;;;;;;;;;;;;;;22.17;54.33;96073.53;1048348;28;1709;-69
2021/08/23 00:11:53;;;;;;;;;;;;;;;22.16;54.55;96071.97;1048947;28;1279;-71
2021/08/23 00:12:24;;;;;;;;;;;;;;;22.17;54.24;96076.97;1048540;28;1533;-69
2021/08/23 00:12:54;;;;;;;;;;;;;;;22.17;54.40;96069.06;1050713;28;1173;-69
2021/08/23 00:13:25;;;;;;;;;;;;;;;22.17;54.38;96078.81;1049078;28;923;-69
2021/08/23 00:13:55;;;;;;;;;;;;;;;22.16;54.45;96075.38;1048907;28;1305;-69
2021/08/23 00:14:25;;;;;;;;;;;;;;;22.16;54.53;96078.03;1046005;28;2289;-68
2021/08/23 00:14:56;;;;;;;;;;;;;;;22.16;54.44;96072.75;1049099;28;1146;-69
2021/08/23 00:15:26;;;;;;;;;;;;;;;22.15;54.16;96073.03;1048897;28;797;-69
2021/08/23 00:15:56;;;;;;;;;;;;;;;22.16;54.24;96075.38;1048516;28;1248;-69
2021/08/23 00:16:26;;;;;;;;;;;;;;;22.16;54.43;96071.97;1048838;28;1205;-69
2021/08/23 00:16:57;;;;;;;;;;;;;;;22.14;54.19;96072.25;1048884;28;1193;-69
2021/08/23 00:17:27;;;;;;;;;;;;;;;22.15;54.12;96076.47;1048220;28;1114;-68
2021/08/23 00:17:57;;;;;;;;;;;;;;;22.16;54.54;96072.75;1047607;28;2640;-68
2021/08/23 00:18:28;;;;;;;;;;;;;;;22.16;54.27;96083.31;1048228;28;1831;-68
2021/08/23 00:18:58;;;;;;;;;;;;;;;22.16;54.20;96078.03;1048264;28;1983;-70
2021/08/23 00:19:28;;;;;;;;;;;;;;;22.15;54.40;96084.38;1047213;28;2232;-69
2021/08/23 00:19:59;;;;;;;;;;;;;;;22.16;54.47;96078.03;1049017;28;1288;-69
2021/08/23 00:20:42;;;;;;;;;;;;;;;22.15;54.21;96073.84;1049164;28;1089;-69
2021/08/23 00:21:14;;;;;;;;;;;;;;;22.15;54.23;96079.09;1048477;28;1367;-69
2021/08/23 00:21:44;;;;;;;;;;;;;;;22.15;54.08;96071.19;1044611;28;1365;-70
2021/08/23 00:22:22;;;;;;;;;;;;;;;22.15;54.30;96073.03;1044199;28;1483;-69
2021/08/23 00:22:54;;;;;;;;;;;;;;;22.15;54.28;96073.84;1045838;28;1186;-70
2021/08/23 00:23:26;;;;;;;;;;;;;;;22.15;54.35;96073.03;1043630;28;2410;-70
2021/08/23 00:24:06;;;;;;;;;;;;;;;22.16;54.38;96075.38;1044669;28;1192;-69
2021/08/23 00:24:36;;;;;;;;;;;;;;;22.16;54.20;96074.59;1042338;28;2274;-70
2021/08/23 00:25:07;;;;;;;;;;;;;;;22.15;54.25;96076.47;1046219;28;1202;-69
2021/08/23 00:25:37;;;;;;;;;;;;;;;22.15;54.11;96073.84;1048477;28;951;-69
2021/08/23 00:26:08;;;;;;;;;;;;;;;22.14;54.02;96080.16;1047480;28;1478;-68
2021/08/23 00:26:38;;;;;;;;;;;;;;;22.14;54.02;96080.16;1048612;28;1482;-68
2021/08/23 00:27:08;;;;;;;;;;;;;;;22.14;54.22;96069.59;1044080;28;1610;-68
2021/08/23 00:27:38;;;;;;;;;;;;;;;22.14;53.92;96080.16;1040662;28;1210;-70
2021/08/23 00:28:10;;;;;;;;;;;;;;;22.13;54.11;96077.81;1043981;28;1551;-68
2021/08/23 00:28:41;;;;;;;;;;;;;;;22.14;54.07;96074.09;1040744;28;1515;-70
2021/08/23 00:29:11;;;;;;;;;;;;;;;22.12;54.04;96074.38;1040476;28;1214;-70
2021/08/23 00:29:41;;;;;;;;;;;;;;;22.13;54.14;96072.53;1038102;28;2275;-70
2021/08/23 00:30:12;;;;;;;;;;;;;;;22.11;53.86;96067.53;1036477;28;1304;-67
2021/08/23 00:30:43;;;;;;;;;;;;;;;22.11;54.33;96067.53;1036456;28;1146;-70
2021/08/23 00:31:14;;;;;;;;;;;;;;;22.10;54.02;96070.41;1036471;28;1265;-69
2021/08/23 00:31:44;;;;;;;;;;;;;;;22.10;53.96;96071.22;1036453;28;1374;-67
2021/08/23 00:32:14;;;;;;;;;;;;;;;22.10;54.07;96073.06;1039976;28;1198;-69
2021/08/23 00:32:45;;;;;;;;;;;;;;;22.09;54.01;96072.25;1041347;28;1699;-69
2021/08/23 00:33:15;;;;;;;;;;;;;;;22.09;53.94;96069.63;1039484;28;2668;-68
2021/08/23 00:33:45;;;;;;;;;;;;;;;22.09;54.13;96071.50;1040609;28;1516;-69
2021/08/23 00:34:16;;;;;;;;;;;;;;;22.10;53.95;96073.06;1037310;28;4168;-68
2021/08/23 00:34:46;;;;;;;;;;;;;;;22.09;54.06;96059.06;1042902;28;2656;-69
2021/08/23 00:35:16;;;;;;;;;;;;;;;22.09;53.99;96066.97;1049010;28;1038;-70
2021/08/23 00:35:46;;;;;;;;;;;;;;;22.09;54.16;96066.97;1048371;28;1281;-68
2021/08/23 00:36:17;;;;;;;;;;;;;;;22.10;53.98;96073.84;1051015;28;1157;-67
2021/08/23 00:36:47;;;;;;;;;;;;;;;22.10;54.05;96068.56;1044873;28;1203;-69
2021/08/23 00:37:17;;;;;;;;;;;;;;;22.10;53.83;96063.28;1044514;28;1012;-69
2021/08/23 00:37:50;;;;;;;;;;;;;;;22.10;53.86;96063.28;1044486;28;1944;-69
2021/08/23 00:38:21;;;;;;;;;;;;;;;22.10;53.70;96067.78;1045078;28;796;-69
2021/08/23 00:38:51;;;;;;;;;;;;;;;22.10;54.00;96057.22;1044913;28;1918;-69
2021/08/23 00:39:21;;;;;;;;;;;;;;;22.09;53.74;96064.34;1044484;28;1364;-70
2021/08/23 00:39:52;;;;;;;;;;;;;;;22.08;53.72;96065.41;1043687;28;2372;-69
2021/08/23 00:40:23;;;;;;;;;;;;;;;22.07;53.92;96069.09;1040052;28;1690;-69
2021/08/23 00:40:53;;;;;;;;;;;;;;;22.07;53.79;96068.34;1044654;28;1292;-68
2021/08/23 00:41:24;;;;;;;;;;;;;;;22.05;53.73;96068.59;1047313;28;1522;-68
2021/08/23 00:41:54;;;;;;;;;;;;;;;22.04;53.68;96064.41;1048034;28;1526;-68
2021/08/23 00:42:24;;;;;;;;;;;;;;;22.03;53.93;96062.03;1047589;28;903;-69
2021/08/23 00:42:54;;;;;;;;;;;;;;;22.02;53.88;96063.88;1048797;28;1198;-68
2021/08/23 00:43:25;;;;;;;;;;;;;;;22.02;53.75;96066.53;1040817;28;1654;-68
2021/08/23 00:43:55;;;;;;;;;;;;;;;22.01;54.02;96061.53;1036349;28;1620;-69
2021/08/23 00:44:25;;;;;;;;;;;;;;;22.02;54.00;96066.53;1036925;28;2392;-68
2021/08/23 00:44:55;;;;;;;;;;;;;;;22.02;53.90;96065.72;1040194;28;1935;-70
2021/08/23 00:45:26;;;;;;;;;;;;;;;22.01;53.81;96064.94;1044416;28;958;-68
2021/08/23 00:45:57;;;;;;;;;;;;;;;22.00;54.12;96066.00;1048584;28;1198;-68
2021/08/23 00:46:27;;;;;;;;;;;;;;;21.99;53.82;96067.06;1048813;28;1162;-69
2021/08/23 00:47:01;;;;;;;;;;;;;;;22.00;54.00;96062.56;1048802;28;1186;-71
2021/08/23 00:47:31;;;;;;;;;;;;;;;22.00;54.02;96066.00;1047988;28;1600;-69
2021/08/23 00:48:01;;;;;;;;;;;;;;;22.00;53.89;96068.66;1045998;28;1487;-70
2021/08/23 00:48:32;;;;;;;;;;;;;;;22.01;53.69;96064.94;1048856;28;1008;-69
2021/08/23 00:49:03;;;;;;;;;;;;;;;22.01;53.95;96061.53;1046127;28;1106;-69
2021/08/23 00:49:33;;;;;;;;;;;;;;;22.01;53.67;96066.81;1039608;28;2280;-69
2021/08/23 00:50:03;;;;;;;;;;;;;;;22.01;53.91;96059.66;1043301;28;1119;-69
2021/08/23 00:50:34;;;;;;;;;;;;;;;22.00;53.72;96063.38;1044563;28;763;-70
2021/08/23 00:51:04;;;;;;;;;;;;;;;22.01;53.74;96069.44;1044081;28;1487;-69
2021/08/23 00:51:34;;;;;;;;;;;;;;;22.01;53.84;96064.16;1048620;28;1324;-70
2021/08/23 00:52:05;;;;;;;;;;;;;;;22.00;53.85;96062.56;1047704;28;1801;-69
2021/08/23 00:52:35;;;;;;;;;;;;;;;22.01;53.67;96064.16;1048807;28;1197;-69
2021/08/23 00:53:05;;;;;;;;;;;;;;;21.99;53.61;96063.66;1044379;28;1300;-69
2021/08/23 00:53:36;;;;;;;;;;;;;;;21.98;53.61;96062.84;1044816;28;808;-68
2021/08/23 00:54:09;;;;;;;;;;;;;;;21.98;53.57;96059.41;1043624;28;1313;-69
2021/08/23 00:54:39;;;;;;;;;;;;;;;21.98;53.83;96056.78;1039358;28;1726;-69
2021/08/23 00:55:10;;;;;;;;;;;;;;;21.98;53.80;96052.28;1044733;28;2290;-69
2021/08/23 00:55:40;;;;;;;;;;;;;;;21.98;53.65;96062.06;1048540;28;1181;-69
2021/08/23 00:56:11;;;;;;;;;;;;;;;21.99;53.76;96063.66;1044394;28;1296;-70
2021/08/23 00:56:41;;;;;;;;;;;;;;;21.98;53.46;96059.41;1044444;28;1274;-69
2021/08/23 00:57:11;;;;;;;;;;;;;;;21.97;53.83;96066.53;1038590;28;2470;-69
2021/08/23 00:57:42;;;;;;;;;;;;;;;21.97;53.61;96063.91;1040632;28;1253;-69
2021/08/23 00:58:12;;;;;;;;;;;;;;;21.96;53.58;96059.69;1048666;28;1673;-68
2021/08/23 00:58:42;;;;;;;;;;;;;;;21.96;53.46;96061.53;1048492;28;1977;-68
2021/08/23 00:59:13;;;;;;;;;;;;;;;21.95;53.75;96071.31;1049029;28;1295;-69
2021/08/23 00:59:43;;;;;;;;;;;;;;;21.94;53.61;96064.47;1049272;28;828;-70
2021/08/23 01:00:13;;;;;;;;;;;;;;;21.96;53.37;96066.81;1047033;28;2570;-68
2021/08/23 01:00:44;;;;;;;;;;;;;;;21.96;53.73;96062.34;1040154;28;816;-68
2021/08/23 01:01:15;;;;;;;;;;;;;;;21.95;53.29;96060.75;1044443;28;1480;-68
2021/08/23 01:01:48;;;;;;;;;;;;;;;21.96;53.71;96066.81;1044664;28;1241;-67
2021/08/23 01:02:27;;;;;;;;;;;;;;;21.95;53.49;96059.97;1043832;28;1523;-68
2021/08/23 01:02:59;;;;;;;;;;;;;;;21.93;53.82;96054.97;1045369;28;1119;-69
2021/08/23 01:03:35;;;;;;;;;;;;;;;21.96;53.45;96056.28;1047798;28;1979;-69
2021/08/23 01:04:07;;;;;;;;;;;;;;;21.95;53.33;96057.34;1042856;28;2775;-70
2021/08/23 01:04:46;;;;;;;;;;;;;;;21.95;53.30;96066.03;1040540;28;737;-69
2021/08/23 01:05:19;;;;;;;;;;;;;;;21.95;53.18;96060.75;1039353;28;2689;-69
2021/08/23 01:05:49;;;;;;;;;;;;;;;21.93;53.08;96056.84;1044403;28;1603;-70
2021/08/23 01:06:19;;;;;;;;;;;;;;;21.94;53.09;96058.41;1048874;28;890;-70
2021/08/23 01:06:50;;;;;;;;;;;;;;;21.93;53.24;96056.84;1044807;28;1166;-70
2021/08/23 01:07:22;;;;;;;;;;;;;;;21.93;53.24;96060.22;1044008;28;1543;-70
2021/08/23 01:07:57;;;;;;;;;;;;;;;21.92;53.18;96055.25;1041348;28;1237;-67
2021/08/23 01:08:34;;;;;;;;;;;;;;;21.91;53.30;96059.72;1040913;28;1221;-70
2021/08/23 01:09:05;;;;;;;;;;;;;;;21.91;53.38;96062.38;1044797;28;1147;-69
2021/08/23 01:09:36;;;;;;;;;;;;;;;21.91;53.27;96061.59;1044717;28;1270;-69
2021/08/23 01:10:07;;;;;;;;;;;;;;;21.90;53.34;96057.38;1039462;28;2503;-71
2021/08/23 01:10:37;;;;;;;;;;;;;;;21.89;53.36;96059.22;1040167;28;2152;-70
2021/08/23 01:11:08;;;;;;;;;;;;;;;21.89;53.30;96056.56;1043214;28;1432;-70
2021/08/23 01:11:41;;;;;;;;;;;;;;;21.89;53.42;96056.56;1043916;28;1754;-70
2021/08/23 01:12:17;;;;;;;;;;;;;;;21.90;53.50;96057.38;1047036;28;1391;-68
2021/08/23 01:12:47;;;;;;;;;;;;;;;21.88;53.39;96064.78;1045326;28;1625;-69
2021/08/23 01:13:18;;;;;;;;;;;;;;;21.89;53.37;96067.13;1040327;28;1158;-70
2021/08/23 01:13:49;;;;;;;;;;;;;;;21.88;53.47;96059.50;1036396;28;1415;-68
2021/08/23 01:14:19;;;;;;;;;;;;;;;21.88;53.39;96062.94;1036732;28;1682;-70
2021/08/23 01:14:50;;;;;;;;;;;;;;;21.89;53.30;96061.84;1041403;28;1151;-69
2021/08/23 01:15:20;;;;;;;;;;;;;;;21.89;53.53;96067.13;1039306;28;2477;-69
2021/08/23 01:15:54;;;;;;;;;;;;;;;21.89;53.73;96061.84;1039640;28;1504;-70
2021/08/23 01:16:28;;;;;;;;;;;;;;;21.89;53.59;96067.13;1028230;28;1298;-70
2021/08/23 01:17:04;;;;;;;;;;;;;;;21.91;53.66;96061.59;1031833;28;1272;-70
2021/08/23 01:17:47;;;;;;;;;;;;;;;21.91;53.63;96059.72;1036082;28;1714;-70
2021/08/23 01:18:18;;;;;;;;;;;;;;;21.92;53.68;96068.44;1041911;28;1482;-69
2021/08/23 01:18:50;;;;;;;;;;;;;;;21.93;53.59;96062.09;1044906;28;2514;-69
2021/08/23 01:19:21;;;;;;;;;;;;;;;21.92;53.46;96058.69;1044191;28;2702;-70
2021/08/23 01:19:58;;;;;;;;;;;;;;;21.93;53.55;96057.59;1045969;28;1206;-70
2021/08/23 01:20:28;;;;;;;;;;;;;;;21.93;53.50;96057.59;1043338;28;2897;-69
2021/08/23 01:21:02;;;;;;;;;;;;;;;21.93;53.50;96060.22;1040060;28;1308;-68
2021/08/23 01:21:36;;;;;;;;;;;;;;;21.94;53.32;96063.66;1036139;28;1296;-70
2021/08/23 01:22:06;;;;;;;;;;;;;;;21.94;53.30;96059.19;1033275;28;1306;-69
2021/08/23 01:22:38;;;;;;;;;;;;;;;21.94;53.24;96053.91;1033110;28;795;-70
2021/08/23 01:23:08;;;;;;;;;;;;;;;21.95;52.98;96057.34;1037389;28;1144;-69
2021/08/23 01:23:40;;;;;;;;;;;;;;;21.94;53.17;96056.56;1043654;28;1134;-71
2021/08/23 01:24:10;;;;;;;;;;;;;;;21.93;53.24;96052.31;1045022;28;1175;-70
2021/08/23 01:24:40;;;;;;;;;;;;;;;21.93;53.26;96054.97;1044899;28;1230;-70
2021/08/23 01:25:11;;;;;;;;;;;;;;;21.92;53.10;96056.03;1040331;28;2461;-70
2021/08/23 01:25:41;;;;;;;;;;;;;;;21.91;53.20;96049.16;1039006;28;2153;-71
2021/08/23 01:26:12;;;;;;;;;;;;;;;21.92;53.07;96058.69;1039948;28;1710;-69
2021/08/23 01:26:43;;;;;;;;;;;;;;;21.92;53.19;96055.25;1040166;28;1200;-70
2021/08/23 01:27:13;;;;;;;;;;;;;;;21.92;53.13;96056.03;1046400;28;1293;-70
2021/08/23 01:27:51;;;;;;;;;;;;;;;21.92;53.40;96061.31;1048805;28;741;-69
2021/08/23 01:28:39;;;;;;;;;;;;;;;21.92;53.00;96061.31;1043858;28;1531;-69
2021/08/23 01:29:12;;;;;;;;;;;;;;;21.93;52.96;96056.84;1048358;28;1185;-69
2021/08/23 01:29:42;;;;;;;;;;;;;;;21.91;53.11;96054.44;1048669;28;827;-70
2021/08/23 01:30:13;;;;;;;;;;;;;;;21.92;52.95;96053.41;1048141;28;2517;-70
2021/08/23 01:30:44;;;;;;;;;;;;;;;21.92;53.41;96060.53;1048157;28;2181;-70
2021/08/23 01:31:14;;;;;;;;;;;;;;;21.91;53.03;96057.09;1048081;28;1565;-70
2021/08/23 01:31:45;;;;;;;;;;;;;;;21.91;52.94;96064.22;1048207;28;1637;-69
2021/08/23 01:32:18;;;;;;;;;;;;;;;21.90;53.04;96060.81;1047905;28;1237;-69
2021/08/23 01:32:49;;;;;;;;;;;;;;;21.92;52.85;96060.53;1040377;28;1214;-70
2021/08/23 01:33:19;;;;;;;;;;;;;;;21.91;52.86;96062.38;1040437;28;1383;-69
2021/08/23 01:33:49;;;;;;;;;;;;;;;21.90;52.91;96063.44;1040508;28;1655;-68
2021/08/23 01:34:20;;;;;;;;;;;;;;;21.91;53.02;96066.88;1035896;28;1465;-70
2021/08/23 01:34:53;;;;;;;;;;;;;;;21.89;52.81;96059.22;1043879;28;1198;-69
2021/08/23 01:35:23;;;;;;;;;;;;;;;21.88;53.10;96063.69;1039096;28;2650;-70
2021/08/23 01:35:53;;;;;;;;;;;;;;;21.89;53.38;96059.22;1039934;28;1155;-70
2021/08/23 01:36:24;;;;;;;;;;;;;;;21.89;53.04;96061.84;1040475;28;1686;-70
2021/08/23 01:36:54;;;;;;;;;;;;;;;21.89;53.00;96056.56;1044416;28;1574;-71
2021/08/23 01:37:24;;;;;;;;;;;;;;;21.89;53.00;96064.50;1048107;28;1741;-70
2021/08/23 01:37:55;;;;;;;;;;;;;;;21.90;53.35;96062.66;1045989;28;1577;-69
2021/08/23 01:38:25;;;;;;;;;;;;;;;21.89;52.94;96061.84;1048397;28;1450;-69
2021/08/23 01:38:55;;;;;;;;;;;;;;;21.89;53.24;96056.56;1050273;28;1906;-70
2021/08/23 01:39:26;;;;;;;;;;;;;;;21.89;53.27;96053.94;1048519;28;815;-70
2021/08/23 01:39:56;;;;;;;;;;;;;;;21.88;53.01;96058.41;1044535;28;1254;-69
2021/08/23 01:40:26;;;;;;;;;;;;;;;21.88;53.14;96061.06;1046482;28;2524;-69
2021/08/23 01:41:00;;;;;;;;;;;;;;;21.89;52.83;96056.56;1045899;28;1438;-69
2021/08/23 01:41:30;;;;;;;;;;;;;;;21.88;52.91;96061.06;1048751;28;1665;-70
2021/08/23 01:42:01;;;;;;;;;;;;;;;21.89;53.16;96059.22;1048836;28;1200;-69
2021/08/23 01:42:31;;;;;;;;;;;;;;;21.89;53.10;96056.56;1043645;28;1432;-70
2021/08/23 01:43:02;;;;;;;;;;;;;;;21.87;52.96;96058.69;1040476;28;1122;-69
2021/08/23 01:43:32;;;;;;;;;;;;;;;21.86;52.78;96060.53;1041670;28;1340;-70
2021/08/23 01:44:03;;;;;;;;;;;;;;;21.88;53.01;96056.84;1036072;28;1904;-69
2021/08/23 01:44:33;;;;;;;;;;;;;;;21.88;52.94;96060.28;1044556;28;1030;-70
2021/08/23 01:45:04;;;;;;;;;;;;;;;21.88;52.84;96060.28;1044527;28;1122;-69
2021/08/23 01:45:34;;;;;;;;;;;;;;;21.86;53.08;96062.41;1043253;28;2492;-70
2021/08/23 01:46:04;;;;;;;;;;;;;;;21.87;52.81;96061.34;1047148;28;1229;-70
2021/08/23 01:46:35;;;;;;;;;;;;;;;21.88;53.01;96057.66;1044459;28;1038;-68
2021/08/23 01:47:05;;;;;;;;;;;;;;;21.87;53.04;96058.69;1048119;28;1157;-69
2021/08/23 01:47:35;;;;;;;;;;;;;;;21.88;53.03;96059.50;1043392;28;2861;-70
2021/08/23 01:48:05;;;;;;;;;;;;;;;21.86;52.89;96059.78;1039530;28;2554;-69
2021/08/23 01:48:36;;;;;;;;;;;;;;;21.87;52.63;96063.97;1044452;28;1162;-68
2021/08/23 01:49:07;;;;;;;;;;;;;;;21.86;52.76;96067.69;1044329;28;1127;-68
2021/08/23 01:49:37;;;;;;;;;;;;;;;21.85;52.83;96066.09;1048487;28;1630;-69
2021/08/23 01:50:08;;;;;;;;;;;;;;;21.84;52.91;96060.03;1049021;28;1185;-69
2021/08/23 01:50:38;;;;;;;;;;;;;;;21.85;52.89;96058.97;1047316;28;2830;-69
2021/08/23 01:51:08;;;;;;;;;;;;;;;21.83;53.02;96061.09;1048519;28;1457;-71
2021/08/23 01:51:39;;;;;;;;;;;;;;;21.83;52.68;96057.66;1048978;28;1258;-69
2021/08/23 01:52:09;;;;;;;;;;;;;;;21.83;52.73;96063.75;1047375;28;1702;-70
2021/08/23 01:52:40;;;;;;;;;;;;;;;21.83;52.74;96063.75;1048925;28;854;-69
2021/08/23 01:53:10;;;;;;;;;;;;;;;21.83;52.75;96062.94;1049004;28;1130;-67
2021/08/23 01:53:41;;;;;;;;;;;;;;;21.83;52.96;96063.75;1049080;28;1082;-68
2021/08/23 01:54:11;;;;;;;;;;;;;;;21.84;52.80;96065.31;1048894;28;1263;-67
2021/08/23 01:54:42;;;;;;;;;;;;;;;21.83;52.84;96058.47;1046621;28;2100;-67
2021/08/23 01:55:12;;;;;;;;;;;;;;;21.84;52.70;96067.19;1048968;28;1141;-68
2021/08/23 01:55:43;;;;;;;;;;;;;;;21.84;52.95;96065.31;1046892;28;2537;-66
2021/08/23 01:56:13;;;;;;;;;;;;;;;21.85;52.80;96066.09;1049753;28;1248;-68
2021/08/23 01:56:43;;;;;;;;;;;;;;;21.84;52.89;96061.91;1050164;28;1560;-67
2021/08/23 01:57:14;;;;;;;;;;;;;;;21.85;52.65;96066.09;1048273;28;1328;-68
2021/08/23 01:57:44;;;;;;;;;;;;;;;21.84;52.88;96061.91;1048478;28;1582;-66
2021/08/23 01:58:14;;;;;;;;;;;;;;;21.84;52.90;96060.03;1048698;28;1241;-67
2021/08/23 01:58:45;;;;;;;;;;;;;;;21.84;52.82;96062.66;1048528;28;1898;-67
2021/08/23 01:59:15;;;;;;;;;;;;;;;21.86;52.74;96060.53;1043963;28;1615;-68
2021/08/23 01:59:46;;;;;;;;;;;;;;;21.86;52.97;96062.41;1044540;28;1131;-67
2021/08/23 02:00:16;;;;;;;;;;;;;;;21.87;52.86;96069.25;1044692;28;1344;-67
2021/08/23 02:00:46;;;;;;;;;;;;;;;21.86;52.96;96065.06;1043826;28;2872;-67
2021/08/23 02:01:17;;;;;;;;;;;;;;;21.86;52.84;96062.41;1047920;28;1891;-68
2021/08/23 02:01:47;;;;;;;;;;;;;;;21.85;52.75;96061.63;1048776;28;1094;-67
2021/08/23 02:02:17;;;;;;;;;;;;;;;21.86;52.84;96059.78;1048056;28;1334;-68
2021/08/23 02:02:47;;;;;;;;;;;;;;;21.86;52.65;96068.47;1048874;28;1548;-67
2021/08/23 02:03:18;;;;;;;;;;;;;;;21.86;52.80;96065.06;1048652;28;1033;-67
2021/08/23 02:03:49;;;;;;;;;;;;;;;21.88;52.72;96068.22;1047702;28;1921;-68
2021/08/23 02:04:19;;;;;;;;;;;;;;;21.88;52.69;96065.56;1047947;28;1978;-68
2021/08/23 02:04:49;;;;;;;;;;;;;;;21.90;52.73;96063.44;1048686;28;1114;-66
2021/08/23 02:05:19;;;;;;;;;;;;;;;21.91;53.07;96059.72;1048333;28;1292;-68
2021/08/23 02:05:50;;;;;;;;;;;;;;;21.90;52.99;96063.44;1047614;28;3027;-67
2021/08/23 02:06:20;;;;;;;;;;;;;;;21.91;52.67;96062.38;1049120;28;874;-67
2021/08/23 02:06:51;;;;;;;;;;;;;;;21.92;52.83;96063.94;1048960;28;1058;-67
2021/08/23 02:07:21;;;;;;;;;;;;;;;21.92;52.92;96066.59;1048502;28;1268;-67
2021/08/23 02:07:51;;;;;;;;;;;;;;;21.93;52.76;96068.16;1048855;28;1180;-66
2021/08/23 02:08:21;;;;;;;;;;;;;;;21.92;52.66;96063.94;1049018;28;1105;-67
2021/08/23 02:08:52;;;;;;;;;;;;;;;21.92;52.67;96055.25;1048781;28;1331;-68
2021/08/23 02:09:22;;;;;;;;;;;;;;;21.93;52.58;96065.50;1048807;28;772;-68
2021/08/23 02:09:52;;;;;;;;;;;;;;;21.93;52.68;96060.22;1049016;28;1117;-66
2021/08/23 02:10:22;;;;;;;;;;;;;;;21.93;52.63;96064.75;1047682;28;2535;-69
2021/08/23 02:10:53;;;;;;;;;;;;;;;21.92;52.91;96058.69;1046654;28;2323;-68
2021/08/23 02:11:24;;;;;;;;;;;;;;;21.92;52.81;96066.59;1048475;28;1197;-67
2021/08/23 02:11:54;;;;;;;;;;;;;;;21.92;52.43;96066.59;1048642;28;1174;-68
2021/08/23 02:12:24;;;;;;;;;;;;;;;21.92;52.61;96060.53;1048170;28;1271;-68
2021/08/23 02:12:55;;;;;;;;;;;;;;;21.92;52.66;96060.53;1048980;28;1177;-67
2021/08/23 02:13:25;;;;;;;;;;;;;;;21.91;52.62;96064.22;1048841;28;1207;-68
2021/08/23 02:13:55;;;;;;;;;;;;;;;21.92;52.57;96063.94;1048982;28;1173;-66
2021/08/23 02:14:25;;;;;;;;;;;;;;;21.91;52.60;96057.09;1049170;28;764;-67
2021/08/23 02:14:55;;;;;;;;;;;;;;;21.91;52.43;96062.38;1049273;28;1122;-67
2021/08/23 02:15:26;;;;;;;;;;;;;;;21.91;52.47;96059.72;1048591;28;2490;-68
2021/08/23 02:15:56;;;;;;;;;;;;;;;21.91;52.33;96066.88;1048815;28;2510;-68
2021/08/23 02:16:26;;;;;;;;;;;;;;;21.90;52.59;96062.66;1049845;28;1089;-68
2021/08/23 02:16:57;;;;;;;;;;;;;;;21.90;52.57;96063.44;1049776;28;1197;-68
2021/08/23 02:17:27;;;;;;;;;;;;;;;21.89;52.42;96064.50;1048501;28;1345;-68
2021/08/23 02:17:58;;;;;;;;;;;;;;;21.88;52.60;96065.56;1043953;28;2827;-67
2021/08/23 02:18:28;;;;;;;;;;;;;;;21.88;52.72;96064.78;1045265;28;1163;-67
2021/08/23 02:18:59;;;;;;;;;;;;;;;21.88;52.69;96065.56;1043924;28;1954;-67
2021/08/23 02:19:29;;;;;;;;;;;;;;;21.87;52.82;96063.97;1045024;28;1151;-68
2021/08/23 02:19:59;;;;;;;;;;;;;;;21.86;52.67;96068.47;1045032;28;1321;-66
2021/08/23 02:20:29;;;;;;;;;;;;;;;21.88;52.52;96068.22;1048304;28;2864;-67
2021/08/23 02:21:00;;;;;;;;;;;;;;;21.87;52.53;96069.25;1048763;28;1269;-67
2021/08/23 02:21:30;;;;;;;;;;;;;;;21.86;52.49;96062.41;1049362;28;1302;-70
2021/08/23 02:22:00;;;;;;;;;;;;;;;21.86;52.67;96068.47;1049069;28;1495;-68
2021/08/23 02:22:31;;;;;;;;;;;;;;;21.86;52.45;96068.47;1048634;28;1300;-68
2021/08/23 02:23:01;;;;;;;;;;;;;;;21.86;52.66;96062.41;1049326;28;1143;-68
2021/08/23 02:23:31;;;;;;;;;;;;;;;21.86;52.66;96070.34;1045285;28;792;-66
2021/08/23 02:24:01;;;;;;;;;;;;;;;21.85;52.64;96069.53;1049009;28;1170;-68
2021/08/23 02:24:33;;;;;;;;;;;;;;;21.86;52.60;96067.69;1049523;28;807;-66
2021/08/23 02:25:04;;;;;;;;;;;;;;;21.85;52.54;96064.25;1049246;28;1276;-67
2021/08/23 02:25:34;;;;;;;;;;;;;;;21.85;52.46;96066.09;1046916;28;2670;-68
2021/08/23 02:26:04;;;;;;;;;;;;;;;21.86;52.69;96070.34;1046684;28;2495;-68
2021/08/23 02:26:35;;;;;;;;;;;;;;;21.86;52.30;96070.34;1049265;28;1704;-67
2021/08/23 02:27:05;;;;;;;;;;;;;;;21.86;52.74;96070.34;1048858;28;1118;-68
2021/08/23 02:27:35;;;;;;;;;;;;;;;21.86;52.44;96067.69;1049432;28;1561;-68
2021/08/23 02:28:06;;;;;;;;;;;;;;;21.85;52.51;96072.16;1047292;28;1761;-68
2021/08/23 02:28:36;;;;;;;;;;;;;;;21.84;52.26;96065.31;1049184;28;1157;-68
2021/08/23 02:29:06;;;;;;;;;;;;;;;21.84;52.65;96067.19;1048990;28;1146;-68
2021/08/23 02:29:36;;;;;;;;;;;;;;;21.84;52.39;96062.66;1049389;28;791;-68
2021/08/23 02:30:07;;;;;;;;;;;;;;;21.85;52.58;96071.38;1049282;28;1142;-68
2021/08/23 02:30:37;;;;;;;;;;;;;;;21.83;52.56;96070.88;1047840;28;2437;-68
2021/08/23 02:31:07;;;;;;;;;;;;;;;21.84;52.26;96069.81;1049084;28;1312;-68
2021/08/23 02:31:38;;;;;;;;;;;;;;;21.84;52.40;96064.53;1049483;28;764;-68
2021/08/23 02:32:08;;;;;;;;;;;;;;;21.83;52.52;96063.75;1048410;28;1253;-69
2021/08/23 02:32:39;;;;;;;;;;;;;;;21.83;52.54;96068.22;1048919;28;1375;-68
2021/08/23 02:33:09;;;;;;;;;;;;;;;21.82;52.49;96074.56;1049170;28;1182;-68
2021/08/23 02:33:39;;;;;;;;;;;;;;;21.82;52.32;96075.34;1049345;28;1229;-68
2021/08/23 02:34:09;;;;;;;;;;;;;;;21.81;52.51;96065.03;1048348;28;1213;-68
2021/08/23 02:34:40;;;;;;;;;;;;;;;21.82;52.32;96077.22;1045045;28;768;-68
2021/08/23 02:35:10;;;;;;;;;;;;;;;21.82;52.31;96077.22;1045685;28;1205;-69
2021/08/23 02:35:40;;;;;;;;;;;;;;;21.82;52.48;96064.03;1044528;28;2544;-68
2021/08/23 02:36:11;;;;;;;;;;;;;;;21.82;52.42;96066.66;1047869;28;1665;-68
2021/08/23 02:36:41;;;;;;;;;;;;;;;21.81;52.62;96067.69;1045629;28;1142;-68
2021/08/23 02:37:11;;;;;;;;;;;;;;;21.80;52.58;96064.25;1049251;28;1209;-68
2021/08/23 02:37:41;;;;;;;;;;;;;;;21.80;52.58;96066.88;1046984;28;1911;-68
2021/08/23 02:38:12;;;;;;;;;;;;;;;21.80;52.22;96068.75;1049235;28;1522;-68
2021/08/23 02:38:42;;;;;;;;;;;;;;;21.80;52.57;96068.75;1049035;28;1186;-68
2021/08/23 02:39:12;;;;;;;;;;;;;;;21.79;52.34;96070.59;1048890;28;1918;-68
2021/08/23 02:39:43;;;;;;;;;;;;;;;21.79;52.25;96067.16;1049333;28;770;-69
2021/08/23 02:40:13;;;;;;;;;;;;;;;21.79;52.26;96061.88;1049150;28;1204;-68
2021/08/23 02:40:43;;;;;;;;;;;;;;;21.79;52.64;96064.53;1047576;28;2505;-67
2021/08/23 02:41:14;;;;;;;;;;;;;;;21.78;52.64;96063.72;1047731;28;1836;-68
2021/08/23 02:41:45;;;;;;;;;;;;;;;21.79;52.30;96072.44;1049207;28;1200;-68
2021/08/23 02:42:15;;;;;;;;;;;;;;;21.79;52.33;96064.53;1044673;28;1259;-68
2021/08/23 02:42:45;;;;;;;;;;;;;;;21.79;52.41;96072.44;1045364;28;1748;-69
2021/08/23 02:43:16;;;;;;;;;;;;;;;21.79;52.32;96061.88;1045027;28;1598;-68